Time;durP1;ratioP1;P1;durP2;ratioP2;P2;SDS_P1;SDS_P2;PMS_P1;PMS_P2;Temp;Humidity;BMP_temperature;BMP_pressure;BME280_temperature;BME280_humidity;BME280_pressure;Samples;Min_cycle;Max_cycle;Signal;HPM_P1;HPM_P2
2023/11/24 00:04:49;;;;;;;5.47;2.35;;;15.70;72.60;;;;;;10575757;28;20016;-52
2023/11/24 00:09:50;;;;;;;2.75;1.40;;;15.70;72.80;;;;;;10546103;28;20027;-53
2023/11/24 00:14:50;;;;;;;4.05;1.45;;;15.70;72.70;;;;;;10533646;28;20067;-52
2023/11/24 00:19:51;;;;;;;4.03;1.50;;;15.70;72.70;;;;;;10542165;28;20015;-54
2023/11/24 00:24:52;;;;;;;4.40;1.40;;;15.70;72.60;;;;;;10574916;28;20452;-53
2023/11/24 00:29:52;;;;;;;5.07;1.38;;;15.70;72.60;;;;;;10564409;28;20020;-53
2023/11/24 00:34:53;;;;;;;3.28;1.00;;;15.70;72.80;;;;;;10560125;28;20467;-52
2023/11/24 00:39:55;;;;;;;3.92;1.13;;;15.70;72.60;;;;;;10532896;28;20032;-54
2023/11/24 00:44:55;;;;;;;3.20;1.27;;;15.60;72.50;;;;;;10532175;28;20020;-54
2023/11/24 00:49:56;;;;;;;4.97;1.52;;;15.60;72.30;;;;;;10532670;28;20028;-51
2023/11/24 00:54:56;;;;;;;3.22;1.00;;;15.60;72.50;;;;;;10539328;28;20725;-48
2023/11/24 00:59:57;;;;;;;5.93;1.25;;;15.60;72.60;;;;;;10540752;28;20020;-49
2023/11/24 01:04:57;;;;;;;2.38;1.30;;;15.60;72.40;;;;;;10540105;28;20044;-53
2023/11/24 01:09:58;;;;;;;3.72;2.10;;;15.60;72.30;;;;;;10539987;28;20024;-51
2023/11/24 01:14:59;;;;;;;5.15;0.95;;;15.60;72.30;;;;;;10539648;28;20050;-52
2023/11/24 01:19:59;;;;;;;2.58;0.93;;;15.60;72.20;;;;;;10539991;28;20070;-53
2023/11/24 01:25:00;;;;;;;2.75;1.00;;;15.60;72.20;;;;;;10539734;28;20020;-51
2023/11/24 01:30:00;;;;;;;5.82;1.50;;;15.60;72.80;;;;;;10539710;28;20020;-51
2023/11/24 01:35:02;;;;;;;4.15;1.13;;;15.60;72.30;;;;;;10566727;28;20445;-53
2023/11/24 01:40:06;;;;;;;3.42;1.20;;;15.60;72.80;;;;;;10539236;28;20026;-52
2023/11/24 01:45:09;;;;;;;4.00;1.15;;;15.50;72.30;;;;;;10538338;28;20081;-53
2023/11/24 01:50:10;;;;;;;4.22;1.08;;;15.50;72.20;;;;;;10539021;28;20032;-53
2023/11/24 01:55:13;;;;;;;2.58;1.30;;;15.50;72.20;;;;;;10538366;28;20055;-53
2023/11/24 02:00:15;;;;;;;3.22;1.02;;;15.50;72.30;;;;;;10520735;28;20758;-53
2023/11/24 02:05:17;;;;;;;3.53;1.70;;;15.50;72.20;;;;;;10537662;28;20024;-51
2023/11/24 02:10:18;;;;;;;3.75;0.93;;;15.50;72.20;;;;;;10537976;28;20028;-52
2023/11/24 02:15:19;;;;;;;2.13;0.90;;;15.50;72.50;;;;;;10537074;28;20028;-52
2023/11/24 02:20:21;;;;;;;4.53;1.00;;;15.50;72.50;;;;;;10537769;28;20024;-53
2023/11/24 02:25:22;;;;;;;3.70;1.35;;;15.50;72.60;;;;;;10518744;28;20012;-53
2023/11/24 02:30:23;;;;;;;6.55;0.98;;;15.50;72.40;;;;;;10538665;28;20020;-54
2023/11/24 02:35:25;;;;;;;1.73;0.85;;;15.50;72.50;;;;;;10562453;28;20033;-52
2023/11/24 02:40:27;;;;;;;3.75;1.10;;;15.50;72.20;;;;;;10554640;28;20023;-52
2023/11/24 02:45:28;;;;;;;2.55;0.95;;;15.40;72.20;;;;;;10578350;28;20026;-51
2023/11/24 02:50:28;;;;;;;4.25;1.10;;;15.40;72.20;;;;;;10578686;28;20035;-51
2023/11/24 02:55:29;;;;;;;3.88;1.45;;;15.40;72.20;;;;;;10577780;28;20028;-52
2023/11/24 03:00:29;;;;;;;3.55;1.00;;;15.40;72.30;;;;;;10578249;28;20026;-53
2023/11/24 03:05:30;;;;;;;1.90;0.90;;;15.40;72.20;;;;;;10577858;28;20489;-54
2023/11/24 03:10:30;;;;;;;3.25;0.90;;;15.40;72.20;;;;;;10542688;28;20050;-53
2023/11/24 03:15:31;;;;;;;3.83;1.92;;;15.40;72.10;;;;;;10534242;28;20036;-52
2023/11/24 03:20:31;;;;;;;2.20;0.80;;;15.40;72.00;;;;;;10535335;28;20092;-51
2023/11/24 03:25:34;;;;;;;2.40;0.88;;;15.40;72.20;;;;;;10534748;28;20111;-54
2023/11/24 03:30:35;;;;;;;3.65;0.82;;;15.40;72.20;;;;;;10551147;28;20024;-54
2023/11/24 03:35:35;;;;;;;3.70;1.00;;;15.40;73.00;;;;;;10558255;28;20490;-53
2023/11/24 03:40:36;;;;;;;3.03;1.05;;;15.40;72.10;;;;;;10534402;28;20032;-53
2023/11/24 03:45:36;;;;;;;3.22;0.80;;;15.30;72.50;;;;;;10515637;28;20039;-52
2023/11/24 03:50:37;;;;;;;2.55;0.88;;;15.30;72.10;;;;;;10533950;28;20028;-51
2023/11/24 03:55:37;;;;;;;3.47;1.10;;;15.30;72.60;;;;;;10533790;28;20035;-50
2023/11/24 04:00:38;;;;;;;3.08;1.10;;;15.30;71.90;;;;;;10533881;28;20110;-53
2023/11/24 04:05:38;;;;;;;4.00;1.30;;;15.30;72.00;;;;;;10533248;28;20081;-53
2023/11/24 04:10:39;;;;;;;2.90;0.82;;;15.30;71.90;;;;;;10533525;28;20040;-53
2023/11/24 04:15:39;;;;;;;2.95;0.85;;;15.30;72.00;;;;;;10515044;28;20375;-52
2023/11/24 04:20:40;;;;;;;2.03;0.77;;;15.30;72.10;;;;;;10515184;28;20442;-53
2023/11/24 04:25:40;;;;;;;1.80;0.98;;;15.30;72.20;;;;;;10533009;28;20024;-53
2023/11/24 04:30:42;;;;;;;2.58;0.65;;;15.30;72.00;;;;;;10558650;28;20058;-52
2023/11/24 04:35:42;;;;;;;1.90;0.40;;;15.30;72.00;;;;;;10564610;28;20492;-51
2023/11/24 04:40:43;;;;;;;1.58;0.65;;;15.30;72.30;;;;;;10541681;28;20024;-51
2023/11/24 04:45:44;;;;;;;0.98;0.30;;;15.20;72.10;;;;;;10541231;28;20032;-53
2023/11/24 04:50:44;;;;;;;2.20;0.52;;;15.30;72.50;;;;;;10541290;28;20037;-53
2023/11/24 04:55:45;;;;;;;3.05;0.40;;;15.20;72.40;;;;;;10523689;28;20111;-52
2023/11/24 05:00:45;;;;;;;2.42;0.70;;;15.20;72.60;;;;;;10523024;28;20012;-52
2023/11/24 05:05:46;;;;;;;4.63;1.50;;;15.20;72.90;;;;;;10546890;28;20024;-53
2023/11/24 05:10:46;;;;;;;2.03;0.50;;;15.20;72.30;;;;;;10575144;28;20020;-51
2023/11/24 05:15:48;;;;;;;1.75;0.80;;;15.20;72.90;;;;;;10533623;28;20478;-53
2023/11/24 05:20:48;;;;;;;2.08;0.32;;;15.20;72.10;;;;;;10556780;28;20096;-53
2023/11/24 05:25:49;;;;;;;1.70;0.82;;;15.20;72.70;;;;;;10536823;28;20043;-53
2023/11/24 05:30:49;;;;;;;1.80;0.40;;;15.20;72.10;;;;;;10544913;28;20042;-51
2023/11/24 05:35:50;;;;;;;1.85;0.60;;;15.20;72.70;;;;;;10559823;28;20050;-53
2023/11/24 05:40:50;;;;;;;2.28;0.70;;;15.20;71.90;;;;;;10559286;28;20107;-50
2023/11/24 05:45:51;;;;;;;1.27;0.77;;;15.20;71.60;;;;;;10511068;28;20591;-49
2023/11/24 05:50:52;;;;;;;1.75;0.40;;;15.40;71.10;;;;;;10520835;28;20024;-50
2023/11/24 05:55:53;;;;;;;1.45;0.47;;;15.70;70.10;;;;;;10520385;28;20111;-53
2023/11/24 06:00:54;;;;;;;6.90;1.30;;;16.00;69.80;;;;;;10533180;28;20105;-50
2023/11/24 06:05:55;;;;;;;7.15;1.27;;;16.10;69.60;;;;;;10537598;28;20032;-51
2023/11/24 06:10:56;;;;;;;2.60;0.90;;;16.20;69.30;;;;;;10531499;28;20020;-52
2023/11/24 06:15:56;;;;;;;6.97;1.60;;;16.50;69.00;;;;;;10523015;28;20047;-50
2023/11/24 06:20:57;;;;;;;4.53;1.27;;;16.60;69.20;;;;;;10537485;28;20016;-49
2023/11/24 06:25:58;;;;;;;5.78;1.00;;;16.80;68.80;;;;;;10537390;28;20097;-52
2023/11/24 06:31:00;;;;;;;6.03;1.38;;;17.00;68.80;;;;;;10543644;28;20027;-50
2023/11/24 06:36:01;;;;;;;6.47;1.77;;;17.10;68.40;;;;;;10548281;28;20075;-53
2023/11/24 06:41:02;;;;;;;6.95;1.30;;;17.10;68.60;;;;;;10525363;28;20123;-52
2023/11/24 06:46:04;;;;;;;13.45;3.35;;;17.20;68.10;;;;;;10525011;28;20024;-49
2023/11/24 06:51:05;;;;;;;8.43;2.05;;;17.30;68.00;;;;;;10537651;28;21427;-48
2023/11/24 06:56:06;;;;;;;10.48;1.35;;;17.30;68.20;;;;;;10558421;28;20032;-47
2023/11/24 07:01:06;;;;;;;15.65;1.42;;;17.40;67.80;;;;;;10520231;28;20035;-51
2023/11/24 07:06:07;;;;;;;12.07;1.88;;;17.40;68.20;;;;;;10529147;28;20116;-54
2023/11/24 07:11:07;;;;;;;9.48;1.40;;;17.40;68.70;;;;;;10531912;28;20383;-52
2023/11/24 07:16:08;;;;;;;12.25;2.50;;;17.60;67.00;;;;;;10533459;28;20035;-53
2023/11/24 07:21:09;;;;;;;12.15;2.17;;;17.60;66.80;;;;;;10534994;28;20464;-52
2023/11/24 07:26:15;;;;;;;16.45;2.13;;;17.60;66.70;;;;;;10534112;28;20471;-52
2023/11/24 07:31:17;;;;;;;10.45;1.38;;;17.60;66.30;;;;;;10544313;28;20035;-52
2023/11/24 07:36:21;;;;;;;10.57;2.80;;;17.70;66.00;;;;;;10551133;28;20083;-49
2023/11/24 07:41:22;;;;;;;10.80;2.17;;;17.70;66.20;;;;;;10528175;28;20798;-50
2023/11/24 07:46:23;;;;;;;6.18;1.02;;;17.70;66.00;;;;;;10514587;28;20040;-50
2023/11/24 07:51:24;;;;;;;6.35;1.20;;;17.70;65.90;;;;;;10533471;28;20028;-49
2023/11/24 07:56:31;;;;;;;4.95;1.25;;;17.80;65.60;;;;;;10532457;28;20032;-49
2023/11/24 08:01:31;;;;;;;4.95;1.25;;;17.70;65.60;;;;;;10533186;28;20479;-50
2023/11/24 08:06:33;;;;;;;6.72;1.17;;;17.80;65.40;;;;;;10531161;28;20039;-51
2023/11/24 08:11:34;;;;;;;3.97;1.20;;;17.80;65.20;;;;;;10533331;28;20039;-51
2023/11/24 08:16:34;;;;;;;7.70;1.52;;;17.80;65.10;;;;;;10533089;28;20028;-51
2023/11/24 08:21:35;;;;;;;4.45;0.77;;;17.70;65.20;;;;;;10533257;28;20016;-53
2023/11/24 08:26:36;;;;;;;5.60;1.10;;;17.70;65.10;;;;;;10522690;28;20114;-51
2023/11/24 08:31:36;;;;;;;4.35;0.90;;;17.70;65.20;;;;;;10544557;28;20015;-51
2023/11/24 08:36:37;;;;;;;4.72;1.00;;;17.70;65.70;;;;;;10529711;28;20043;-52
2023/11/24 08:41:38;;;;;;;2.67;0.60;;;17.70;65.30;;;;;;10532684;28;20359;-51
2023/11/24 08:46:39;;;;;;;2.05;0.50;;;17.70;65.40;;;;;;10531672;28;20118;-52
2023/11/24 08:51:39;;;;;;;3.08;0.90;;;17.60;65.40;;;;;;10532291;28;20036;-47
2023/11/24 08:56:40;;;;;;;5.40;1.20;;;17.50;66.30;;;;;;10531289;28;20040;-50
2023/11/24 09:01:40;;;;;;;3.17;1.10;;;17.50;66.50;;;;;;10530708;28;20507;-51
2023/11/24 09:06:41;;;;;;;3.45;0.60;;;17.50;66.30;;;;;;10518561;28;20041;-52
2023/11/24 09:11:42;;;;;;;3.10;0.90;;;17.60;66.40;;;;;;10513472;28;20016;-49
2023/11/24 09:16:42;;;;;;;5.40;0.93;;;17.50;66.70;;;;;;10534018;28;20518;-50
2023/11/24 09:21:43;;;;;;;8.05;1.15;;;17.40;66.90;;;;;;10539040;28;20031;-50
2023/11/24 09:26:43;;;;;;;6.05;1.15;;;17.40;67.10;;;;;;10521223;28;20149;-52
2023/11/24 09:31:44;;;;;;;8.27;1.00;;;17.30;67.10;;;;;;10521053;28;20086;-51
2023/11/24 09:36:46;;;;;;;12.27;1.45;;;17.40;67.30;;;;;;10520843;28;20036;-53
2023/11/24 09:41:49;;;;;;;5.88;1.17;;;17.40;67.30;;;;;;10530776;28;20517;-52
2023/11/24 09:46:51;;;;;;;7.72;2.05;;;17.40;67.30;;;;;;10580117;28;20927;-53
2023/11/24 09:51:51;;;;;;;7.28;1.40;;;17.30;67.40;;;;;;10580535;28;20027;-52
2023/11/24 09:56:52;;;;;;;6.60;1.35;;;17.30;67.60;;;;;;10580085;28;20434;-53
2023/11/24 10:01:53;;;;;;;4.00;1.00;;;17.30;67.60;;;;;;10579575;28;20057;-50
2023/11/24 10:06:54;;;;;;;5.47;0.90;;;17.10;69.40;;;;;;10557632;28;20069;-52
2023/11/24 10:11:55;;;;;;;2.97;0.88;;;17.00;68.30;;;;;;10519178;28;20051;-51
2023/11/24 10:16:56;;;;;;;3.30;0.88;;;17.00;68.30;;;;;;10537886;28;20031;-52
2023/11/24 10:21:57;;;;;;;3.85;0.80;;;16.90;69.00;;;;;;10536591;28;20030;-52
2023/11/24 10:26:58;;;;;;;4.20;0.95;;;16.80;68.50;;;;;;10536075;28;20020;-52
2023/11/24 10:32:00;;;;;;;8.02;1.00;;;16.80;68.40;;;;;;10551185;28;20046;-51
2023/11/24 10:37:03;;;;;;;4.68;1.10;;;16.90;68.20;;;;;;10548906;28;20028;-51
2023/11/24 10:42:04;;;;;;;3.25;0.70;;;16.90;68.20;;;;;;10518050;28;20024;-51
2023/11/24 10:47:08;;;;;;;2.80;1.27;;;17.00;68.20;;;;;;10517947;28;20039;-52
2023/11/24 10:52:23;;;;;;;3.67;0.98;;;16.90;69.60;;;;;;10535683;28;20032;-52
2023/11/24 10:57:25;;;;;;;3.03;0.73;;;16.90;69.10;;;;;;10517072;28;20016;-53
2023/11/24 11:02:26;;;;;;;3.70;0.98;;;16.80;70.00;;;;;;10535707;28;20052;-53
2023/11/24 11:07:58;;;;;;;4.13;1.15;;;16.80;70.10;;;;;;10534962;28;20056;-53
2023/11/24 11:13:00;;;;;;;2.13;0.50;;;16.80;70.20;;;;;;10523703;28;20126;-53
2023/11/24 11:18:13;;;;;;;3.25;0.90;;;16.90;70.20;;;;;;10535528;28;20024;-53
2023/11/24 11:23:15;;;;;;;4.20;0.98;;;16.80;70.40;;;;;;10508564;28;20027;-51
2023/11/24 11:28:19;;;;;;;8.77;1.98;;;16.70;70.60;;;;;;10523270;28;20029;-52
2023/11/24 11:33:22;;;;;;;6.15;1.02;;;16.70;70.80;;;;;;10496000;28;20092;-53
2023/11/24 11:38:45;;;;;;;6.07;1.08;;;16.70;70.90;;;;;;10494039;28;20487;-50
2023/11/24 11:43:55;;;;;;;5.82;1.05;;;16.80;70.90;;;;;;10500419;28;20024;-53
2023/11/24 11:48:57;;;;;;;9.52;1.58;;;16.90;70.70;;;;;;10522583;28;20051;-51
2023/11/24 11:53:58;;;;;;;7.97;1.10;;;16.80;70.90;;;;;;10514357;28;20871;-52
2023/11/24 11:59:00;;;;;;;9.77;1.58;;;16.80;70.90;;;;;;10531323;28;20032;-51
2023/11/24 12:04:01;;;;;;;6.50;1.33;;;16.70;71.50;;;;;;10532312;28;20047;-53
2023/11/24 12:09:01;;;;;;;3.72;0.88;;;16.70;71.20;;;;;;10513039;28;20028;-53
2023/11/24 12:14:02;;;;;;;9.35;2.15;;;16.70;71.20;;;;;;10531152;28;20162;-51
2023/11/24 12:19:06;;;;;;;9.63;1.70;;;16.70;70.60;;;;;;10531983;28;20035;-51
2023/11/24 12:24:09;;;;;;;7.50;1.63;;;16.70;70.60;;;;;;10496367;28;20024;-52
2023/11/24 12:29:13;;;;;;;10.02;1.40;;;16.90;71.60;;;;;;10518206;28;20028;-47
2023/11/24 12:34:17;;;;;;;4.80;1.30;;;16.80;70.70;;;;;;10566783;28;20063;-50
2023/11/24 12:39:17;;;;;;;6.38;1.45;;;16.60;70.90;;;;;;10530773;28;20047;-50
2023/11/24 12:44:19;;;;;;;12.40;1.95;;;16.50;70.90;;;;;;10514103;28;20031;-51
2023/11/24 12:49:19;;;;;;;8.68;1.70;;;16.50;70.50;;;;;;10535655;28;20107;-51
2023/11/24 12:54:20;;;;;;;6.75;1.77;;;16.40;70.30;;;;;;10533688;28;20444;-48
2023/11/24 12:59:22;;;;;;;6.47;1.70;;;16.30;70.30;;;;;;10539605;28;20111;-52
2023/11/24 13:04:23;;;;;;;9.95;1.83;;;16.30;70.30;;;;;;10539391;28;20074;-53
2023/11/24 13:09:28;;;;;;;7.47;1.52;;;16.20;70.40;;;;;;10539127;28;20016;-50
2023/11/24 13:14:28;;;;;;;9.65;1.67;;;16.20;70.30;;;;;;10539043;28;20747;-53
2023/11/24 13:19:32;;;;;;;7.85;1.73;;;16.20;70.40;;;;;;10538648;28;20039;-49
2023/11/24 13:24:32;;;;;;;12.43;2.00;;;16.30;69.90;;;;;;10538287;28;20032;-52
2023/11/24 13:29:33;;;;;;;14.82;2.97;;;16.40;70.10;;;;;;10544916;28;20116;-55
2023/11/24 13:34:34;;;;;;;13.65;3.30;;;16.50;69.80;;;;;;10533066;28;20055;-53
2023/11/24 13:39:35;;;;;;;15.00;2.75;;;16.60;69.40;;;;;;10527522;28;20459;-54
2023/11/24 13:44:36;;;;;;;15.85;2.90;;;16.60;70.00;;;;;;10519166;28;20115;-50
2023/11/24 13:49:37;;;;;;;9.85;2.38;;;16.60;69.80;;;;;;10514516;28;20130;-50
2023/11/24 13:54:37;;;;;;;10.18;1.70;;;16.70;69.30;;;;;;10536385;28;20451;-52
2023/11/24 13:59:38;;;;;;;8.18;2.28;;;16.70;68.70;;;;;;10536827;28;20388;-53
2023/11/24 14:04:38;;;;;;;10.10;2.50;;;16.60;68.70;;;;;;10537099;28;20024;-53
2023/11/24 14:09:42;;;;;;;7.53;1.60;;;16.60;68.70;;;;;;10535807;28;20030;-53
2023/11/24 14:14:43;;;;;;;7.13;1.85;;;16.70;68.10;;;;;;10535662;28;20501;-51
2023/11/24 14:19:43;;;;;;;4.97;1.50;;;16.70;67.70;;;;;;10535617;28;20027;-53
2023/11/24 14:24:44;;;;;;;7.53;1.65;;;16.70;67.60;;;;;;10535369;28;20467;-51
2023/11/24 14:29:44;;;;;;;6.70;1.15;;;16.70;67.60;;;;;;10544066;28;20111;-51
2023/11/24 14:34:45;;;;;;;14.27;1.52;;;16.80;67.40;;;;;;10565941;28;20036;-53
2023/11/24 14:39:46;;;;;;;5.53;1.25;;;16.80;67.30;;;;;;10534956;28;20028;-53
2023/11/24 14:44:46;;;;;;;4.72;0.90;;;16.70;67.20;;;;;;10534231;28;20024;-52
2023/11/24 14:49:47;;;;;;;4.78;0.93;;;16.80;67.00;;;;;;10563717;28;20539;-52
2023/11/24 14:54:47;;;;;;;6.63;1.45;;;16.80;67.10;;;;;;10575997;28;20024;-53
2023/11/24 14:59:48;;;;;;;4.78;1.38;;;16.70;67.00;;;;;;10576657;28;20020;-53
2023/11/24 15:04:48;;;;;;;5.38;1.33;;;16.80;66.90;;;;;;10576827;28;20022;-52
2023/11/24 15:09:49;;;;;;;3.80;1.13;;;16.80;66.80;;;;;;10545724;28;20020;-51
2023/11/24 15:14:49;;;;;;;8.30;1.25;;;16.80;66.90;;;;;;10533487;28;20024;-50
2023/11/24 15:19:53;;;;;;;4.55;1.23;;;16.80;66.80;;;;;;10534057;28;20027;-50
2023/11/24 15:24:57;;;;;;;3.42;1.00;;;16.70;66.70;;;;;;10514652;28;20651;-52
2023/11/24 15:29:58;;;;;;;4.82;1.00;;;16.70;66.60;;;;;;10545082;28;20328;-52
2023/11/24 15:34:58;;;;;;;3.33;1.02;;;16.80;66.50;;;;;;10561634;28;20044;-53
2023/11/24 15:39:59;;;;;;;6.97;2.00;;;16.90;66.60;;;;;;10532488;28;20510;-51
2023/11/24 15:45:00;;;;;;;4.07;1.08;;;16.90;65.90;;;;;;10532028;28;20035;-52
2023/11/24 15:50:07;;;;;;;2.50;0.80;;;16.90;65.80;;;;;;10532620;28;20055;-54
2023/11/24 15:55:10;;;;;;;5.97;1.38;;;16.90;65.70;;;;;;10530728;28;20040;-51
2023/11/24 16:00:19;;;;;;;4.35;1.25;;;16.90;65.80;;;;;;10527531;28;20443;-48
2023/11/24 16:05:19;;;;;;;17.10;1.77;;;16.80;65.90;;;;;;10517856;28;20391;-49
2023/11/24 16:10:25;;;;;;;6.40;1.13;;;16.90;65.90;;;;;;10525038;28;20027;-50
2023/11/24 16:15:26;;;;;;;6.28;1.30;;;16.90;65.60;;;;;;10520165;28;20107;-50
2023/11/24 16:20:26;;;;;;;8.75;1.83;;;17.00;65.70;;;;;;10532220;28;20103;-52
2023/11/24 16:25:27;;;;;;;7.95;2.25;;;16.90;66.40;;;;;;10531944;28;20395;-53
2023/11/24 16:30:28;;;;;;;14.40;2.10;;;16.70;67.20;;;;;;10543078;28;20050;-52
2023/11/24 16:35:29;;;;;;;10.57;2.45;;;16.70;66.10;;;;;;10508937;28;20040;-50
2023/11/24 16:40:29;;;;;;;11.35;2.50;;;16.80;66.20;;;;;;10480937;28;20020;-52
2023/11/24 16:45:30;;;;;;;10.15;2.13;;;16.90;67.70;;;;;;10499589;28;20042;-53
2023/11/24 16:50:32;;;;;;;10.55;2.47;;;16.90;66.60;;;;;;10516051;28;20085;-51
2023/11/24 16:55:33;;;;;;;8.10;1.52;;;17.10;66.20;;;;;;10506844;28;20439;-54
2023/11/24 17:00:34;;;;;;;11.00;2.42;;;17.20;67.80;;;;;;10513525;28;20027;-54
2023/11/24 17:05:35;;;;;;;10.85;1.40;;;17.40;68.70;;;;;;10513733;28;20471;-53
2023/11/24 17:10:36;;;;;;;14.02;2.47;;;17.50;67.70;;;;;;10498967;28;20746;-54
2023/11/24 17:15:36;;;;;;;20.92;2.95;;;17.70;67.10;;;;;;10499865;28;20039;-54
2023/11/24 17:20:37;;;;;;;9.35;1.40;;;17.80;66.60;;;;;;10516172;28;20020;-54
2023/11/24 17:25:37;;;;;;;9.18;3.35;;;17.90;65.60;;;;;;10512831;28;20060;-53
2023/11/24 17:30:39;;;;;;;15.27;2.17;;;18.00;64.90;;;;;;10523161;28;20038;-55
2023/11/24 17:35:40;;;;;;;10.55;2.35;;;17.90;64.50;;;;;;10524102;28;20049;-54
2023/11/24 17:40:41;;;;;;;17.85;2.50;;;18.00;64.80;;;;;;10516766;28;20455;-55
2023/11/24 17:45:41;;;;;;;15.73;2.67;;;18.10;64.10;;;;;;10517131;28;20094;-53
2023/11/24 17:50:42;;;;;;;8.93;2.08;;;18.00;64.70;;;;;;10514206;28;20498;-53
2023/11/24 17:55:43;;;;;;;16.23;3.35;;;18.10;64.30;;;;;;10528970;28;20101;-54
2023/11/24 18:00:45;;;;;;;10.93;2.03;;;18.10;64.10;;;;;;10523429;28;20020;-54
2023/11/24 18:05:45;;;;;;;11.55;2.05;;;18.20;63.80;;;;;;10513392;28;20138;-54
2023/11/24 18:10:47;;;;;;;9.00;1.42;;;18.20;63.60;;;;;;10524978;28;20028;-54
2023/11/24 18:15:48;;;;;;;16.17;1.85;;;18.20;63.40;;;;;;10517215;28;20475;-53
2023/11/24 18:20:48;;;;;;;8.45;1.92;;;18.20;64.00;;;;;;10546366;28;20047;-54
2023/11/24 18:25:50;;;;;;;8.82;1.88;;;18.20;63.80;;;;;;10529856;28;20020;-55
2023/11/24 18:30:51;;;;;;;8.43;1.40;;;18.10;63.60;;;;;;10556236;28;20356;-53
2023/11/24 18:35:51;;;;;;;10.77;1.67;;;18.10;64.20;;;;;;10531198;28;20051;-54
2023/11/24 18:40:52;;;;;;;9.45;1.83;;;18.10;63.70;;;;;;10538788;28;20012;-54
2023/11/24 18:45:53;;;;;;;6.10;1.52;;;18.10;63.50;;;;;;10549146;28;20023;-55
2023/11/24 18:50:54;;;;;;;8.15;1.30;;;18.10;63.50;;;;;;10542790;28;20479;-54
2023/11/24 18:55:54;;;;;;;8.95;2.28;;;18.00;63.30;;;;;;10546136;28;20039;-54
2023/11/24 19:00:55;;;;;;;6.88;1.38;;;18.00;63.20;;;;;;10539032;28;20093;-54
2023/11/24 19:05:56;;;;;;;8.93;1.42;;;18.00;63.10;;;;;;10550879;28;20020;-52
2023/11/24 19:10:57;;;;;;;4.90;0.93;;;18.00;63.50;;;;;;10535306;28;20024;-53
2023/11/24 19:15:59;;;;;;;7.22;2.17;;;17.90;63.10;;;;;;10516113;28;20030;-53
2023/11/24 19:20:59;;;;;;;4.32;1.27;;;18.00;63.10;;;;;;10516857;28;20463;-55
2023/11/24 19:26:01;;;;;;;3.80;1.10;;;18.00;63.30;;;;;;10499493;28;20028;-55
2023/11/24 19:31:01;;;;;;;4.25;1.48;;;17.90;63.70;;;;;;10520355;28;20079;-54
2023/11/24 19:36:03;;;;;;;6.10;1.23;;;17.90;65.10;;;;;;10511184;28;20570;-54
2023/11/24 19:41:04;;;;;;;7.82;1.30;;;17.90;64.00;;;;;;10534936;28;20095;-54
2023/11/24 19:46:05;;;;;;;5.68;0.98;;;17.80;63.20;;;;;;10518749;28;20046;-55
2023/11/24 19:51:06;;;;;;;5.88;1.55;;;17.80;63.10;;;;;;10529483;28;20020;-54
2023/11/24 19:56:07;;;;;;;4.82;0.98;;;17.80;62.90;;;;;;10533299;28;20024;-50
2023/11/24 20:01:07;;;;;;;3.67;0.93;;;17.90;62.10;;;;;;10532828;28;20659;-50
2023/11/24 20:06:08;;;;;;;2.88;0.90;;;17.90;62.30;;;;;;10554877;28;20031;-52
2023/11/24 20:11:08;;;;;;;3.65;1.10;;;17.90;62.20;;;;;;10533479;28;20081;-51
2023/11/24 20:16:10;;;;;;;4.13;1.58;;;17.80;62.60;;;;;;10532697;28;20646;-49
2023/11/24 20:21:11;;;;;;;3.40;1.13;;;17.70;62.70;;;;;;10519747;28;20036;-52
2023/11/24 20:26:11;;;;;;;5.50;1.63;;;17.50;63.10;;;;;;10515812;28;20024;-54
2023/11/24 20:31:12;;;;;;;3.47;0.73;;;17.30;63.60;;;;;;10517290;28;20035;-56
2023/11/24 20:36:14;;;;;;;3.90;1.20;;;17.30;63.40;;;;;;10541224;28;20100;-56
2023/11/24 20:41:17;;;;;;;5.53;1.20;;;17.20;64.30;;;;;;10537644;28;20039;-54
2023/11/24 20:46:17;;;;;;;3.28;1.05;;;17.30;64.50;;;;;;10512828;28;20116;-53
2023/11/24 20:51:18;;;;;;;4.15;1.20;;;17.20;64.70;;;;;;10513652;28;20032;-53
2023/11/24 20:56:18;;;;;;;3.90;1.10;;;17.10;64.80;;;;;;10520294;28;20024;-54
2023/11/24 21:01:19;;;;;;;3.63;0.98;;;17.00;65.10;;;;;;10532780;28;20017;-53
2023/11/24 21:06:19;;;;;;;3.88;1.20;;;17.00;65.20;;;;;;10532237;28;20107;-53
2023/11/24 21:11:20;;;;;;;4.55;1.20;;;16.90;65.50;;;;;;10538562;28;20055;-53
2023/11/24 21:16:22;;;;;;;3.85;0.73;;;16.90;65.60;;;;;;10540079;28;20042;-51
2023/11/24 21:21:22;;;;;;;3.80;0.90;;;16.80;65.90;;;;;;10540005;28;20020;-52
2023/11/24 21:26:23;;;;;;;2.97;0.73;;;16.70;66.10;;;;;;10539587;28;20030;-55
2023/11/24 21:31:23;;;;;;;4.10;1.05;;;16.70;66.20;;;;;;10563334;28;20438;-53
2023/11/24 21:36:24;;;;;;;5.18;1.55;;;16.70;66.40;;;;;;10533302;28;20036;-54
2023/11/24 21:41:24;;;;;;;3.17;0.93;;;16.60;67.00;;;;;;10539204;28;20046;-54
2023/11/24 21:46:25;;;;;;;2.35;0.65;;;16.60;66.50;;;;;;10539412;28;20024;-54
2023/11/24 21:51:27;;;;;;;3.30;0.90;;;16.50;66.70;;;;;;10538437;28;20028;-53
2023/11/24 21:56:29;;;;;;;2.85;0.93;;;16.50;66.80;;;;;;10538961;28;20028;-52
2023/11/24 22:01:33;;;;;;;3.50;0.95;;;16.40;66.60;;;;;;10547459;28;20422;-51
2023/11/24 22:06:35;;;;;;;3.88;1.50;;;16.40;66.70;;;;;;10538300;28;20081;-52
2023/11/24 22:11:35;;;;;;;2.17;0.90;;;16.30;66.60;;;;;;10537510;28;20028;-53
2023/11/24 22:16:36;;;;;;;3.00;1.25;;;16.30;66.90;;;;;;10538037;28;20028;-54
2023/11/24 22:21:37;;;;;;;6.38;0.88;;;16.20;66.80;;;;;;10537538;28;20025;-53
2023/11/24 22:26:40;;;;;;;2.80;1.30;;;16.20;66.90;;;;;;10537756;28;20032;-53
2023/11/24 22:31:40;;;;;;;2.38;0.85;;;16.20;67.60;;;;;;10562568;28;20043;-53
2023/11/24 22:36:41;;;;;;;3.22;0.90;;;16.20;67.00;;;;;;10552502;28;20055;-53
2023/11/24 22:41:41;;;;;;;3.35;1.00;;;16.10;67.20;;;;;;10536720;28;20043;-53
2023/11/24 22:46:42;;;;;;;4.95;1.15;;;16.10;67.20;;;;;;10536965;28;20051;-53
2023/11/24 22:51:43;;;;;;;2.83;0.70;;;16.10;67.20;;;;;;10536557;28;20089;-53
2023/11/24 22:56:44;;;;;;;5.50;0.80;;;16.00;67.10;;;;;;10536465;28;20547;-53
2023/11/24 23:01:44;;;;;;;3.38;0.82;;;16.00;67.20;;;;;;10535889;28;20024;-55
2023/11/24 23:06:45;;;;;;;2.28;0.85;;;16.00;67.20;;;;;;10536491;28;20020;-55
2023/11/24 23:11:45;;;;;;;2.70;0.55;;;16.00;67.10;;;;;;10535210;28;20035;-53
2023/11/24 23:16:47;;;;;;;2.45;0.80;;;15.90;67.10;;;;;;10535329;28;20025;-55
2023/11/24 23:21:47;;;;;;;4.97;0.93;;;15.90;67.10;;;;;;10535024;28;20027;-54
2023/11/24 23:26:48;;;;;;;1.40;0.60;;;15.90;67.00;;;;;;10535302;28;20035;-54
2023/11/24 23:31:48;;;;;;;3.17;1.00;;;15.90;67.10;;;;;;10534477;28;20044;-53
2023/11/24 23:36:49;;;;;;;4.47;0.70;;;15.90;67.10;;;;;;10534792;28;20085;-54
2023/11/24 23:41:49;;;;;;;3.03;1.58;;;15.80;67.10;;;;;;10534046;28;20020;-53
2023/11/24 23:46:51;;;;;;;2.53;0.90;;;15.80;67.20;;;;;;10534187;28;20103;-53
2023/11/24 23:51:51;;;;;;;4.50;1.25;;;15.80;67.30;;;;;;10533805;28;20048;-53
2023/11/24 23:56:52;;;;;;;1.20;0.50;;;15.80;67.40;;;;;;10534239;28;20500;-54
